createdAt,value
2022-09-06T00:01:53.533Z,1021.27
2022-09-06T00:04:05.671Z,1021.27
2022-09-06T00:06:17.719Z,1021.27
2022-09-06T00:08:30.803Z,1021.30
2022-09-06T00:10:42.861Z,1021.29
2022-09-06T00:12:54.932Z,1021.28
2022-09-06T00:15:07.041Z,1021.31
2022-09-06T00:17:19.146Z,1021.30
2022-09-06T00:19:31.203Z,1021.28
2022-09-06T00:21:43.290Z,1021.29
2022-09-06T00:23:55.371Z,1021.27
2022-09-06T00:26:07.440Z,1021.32
2022-09-06T00:28:20.528Z,1021.24
2022-09-06T00:30:32.597Z,1021.26
2022-09-06T00:32:44.660Z,1021.28
2022-09-06T00:34:56.766Z,1021.25
2022-09-06T00:37:08.824Z,1021.27
2022-09-06T00:39:20.927Z,1021.24
2022-09-06T00:41:32.998Z,1021.19
2022-09-06T00:43:45.056Z,1021.19
2022-09-06T00:45:57.252Z,1021.23
2022-09-06T00:48:09.284Z,1021.19
2022-09-06T00:50:21.381Z,1021.21
2022-09-06T00:52:33.452Z,1021.16
2022-09-06T00:54:45.533Z,1021.24
2022-09-06T00:56:57.612Z,1021.26
2022-09-06T00:59:09.701Z,1021.29
2022-09-06T01:01:21.919Z,1021.25
2022-09-06T01:03:33.891Z,1021.23
2022-09-06T01:05:45.932Z,1021.19
2022-09-06T01:07:58.039Z,1021.14
2022-09-06T01:10:10.092Z,1021.14
2022-09-06T01:12:22.241Z,1021.14
2022-09-06T01:14:34.301Z,1021.12
2022-09-06T01:16:46.373Z,1021.14
2022-09-06T01:18:58.460Z,1021.16
2022-09-06T01:21:10.540Z,1021.11
2022-09-06T01:23:22.635Z,1021.09
2022-09-06T01:25:34.694Z,1021.12
2022-09-06T01:27:46.782Z,1021.16
2022-09-06T01:29:58.862Z,1021.18
2022-09-06T01:32:10.938Z,1021.19
2022-09-06T01:34:23.045Z,1021.15
2022-09-06T01:36:36.037Z,1021.15
2022-09-06T01:38:47.217Z,1021.14
2022-09-06T01:40:59.314Z,1021.05
2022-09-06T01:43:11.380Z,1021.07
2022-09-06T01:45:23.493Z,1021.07
2022-09-06T01:47:35.555Z,1021.09
2022-09-06T01:49:47.626Z,1021.09
2022-09-06T01:51:59.713Z,1021.04
2022-09-06T01:54:11.796Z,1021.01
2022-09-06T01:56:23.880Z,1021.09
2022-09-06T01:58:36.803Z,1021.06
2022-09-06T02:00:48.024Z,1021.12
2022-09-06T02:03:00.111Z,1021.08
2022-09-06T02:05:12.243Z,1021.09
2022-09-06T02:07:24.353Z,1021.06
2022-09-06T02:09:36.408Z,1020.99
2022-09-06T02:11:48.499Z,1021.02
2022-09-06T02:14:00.585Z,1021.04
2022-09-06T02:16:12.676Z,1021.01
2022-09-06T02:18:24.840Z,1020.98
2022-09-06T02:20:36.817Z,1020.94
2022-09-06T02:22:48.898Z,1020.90
2022-09-06T02:25:00.990Z,1020.93
2022-09-06T02:27:13.062Z,1020.88
2022-09-06T02:29:25.163Z,1020.90
2022-09-06T02:31:37.273Z,1020.92
2022-09-06T02:33:49.341Z,1020.96
2022-09-06T02:36:02.434Z,1020.98
2022-09-06T02:38:14.513Z,1021.00
2022-09-06T02:40:27.462Z,1021.04
2022-09-06T02:42:38.671Z,1021.01
2022-09-06T02:44:50.761Z,1021.02
2022-09-06T02:47:02.840Z,1020.96
2022-09-06T02:49:14.910Z,1020.96
2022-09-06T02:51:27.031Z,1020.94
2022-09-06T02:53:39.069Z,1020.90
2022-09-06T02:55:51.157Z,1020.88
2022-09-06T02:58:03.769Z,1020.92
2022-09-06T03:00:15.326Z,1020.94
2022-09-06T03:02:27.533Z,1020.94
2022-09-06T03:04:39.535Z,1020.90
2022-09-06T03:06:51.634Z,1020.87
2022-09-06T03:09:03.734Z,1020.84
2022-09-06T03:11:15.803Z,1020.83
2022-09-06T03:13:27.906Z,1020.85
2022-09-06T03:15:39.962Z,1020.79
2022-09-06T03:17:52.043Z,1020.73
2022-09-06T03:20:04.121Z,1020.70
2022-09-06T03:22:17.044Z,1020.71
2022-09-06T03:24:28.310Z,1020.76
2022-09-06T03:26:40.371Z,1020.79
2022-09-06T03:28:52.495Z,1020.76
2022-09-06T03:31:04.621Z,1020.74
2022-09-06T03:33:16.652Z,1020.74
2022-09-06T03:35:29.756Z,1020.74
2022-09-06T03:37:41.820Z,1020.78
2022-09-06T03:39:53.927Z,1020.72
2022-09-06T03:42:05.970Z,1020.80
2022-09-06T03:44:19.032Z,1020.79
2022-09-06T03:46:31.142Z,1020.79
2022-09-06T03:48:43.189Z,1020.77
2022-09-06T03:50:55.274Z,1020.78
2022-09-06T03:53:07.349Z,1020.75
2022-09-06T03:55:19.427Z,1020.74
2022-09-06T03:57:31.534Z,1020.74
2022-09-06T03:59:43.612Z,1020.71
2022-09-06T04:01:55.709Z,1020.66
2022-09-06T04:04:07.753Z,1020.68
2022-09-06T04:06:20.675Z,1020.66
2022-09-06T04:08:31.926Z,1020.61
2022-09-06T04:10:43.982Z,1020.65
2022-09-06T04:12:57.070Z,1020.67
2022-09-06T04:15:09.143Z,1020.67
2022-09-06T04:17:23.323Z,1020.67
2022-09-06T04:19:33.398Z,1020.70
2022-09-06T04:21:45.476Z,1020.64
2022-09-06T04:23:57.553Z,1020.62
2022-09-06T04:26:09.697Z,1020.58
2022-09-06T04:28:21.758Z,1020.48
2022-09-06T04:30:33.827Z,1020.48
2022-09-06T04:32:45.885Z,1020.51
2022-09-06T04:34:57.957Z,1020.52
2022-09-06T04:37:10.034Z,1020.52
2022-09-06T04:39:22.113Z,1020.50
2022-09-06T04:41:34.234Z,1020.47
2022-09-06T04:43:46.270Z,1020.49
2022-09-06T04:45:58.404Z,1020.44
2022-09-06T04:48:10.432Z,1020.42
2022-09-06T04:50:22.513Z,1020.41
2022-09-06T04:52:34.672Z,1020.41
2022-09-06T04:54:46.674Z,1020.40
2022-09-06T04:56:58.753Z,1020.41
2022-09-06T04:59:10.857Z,1020.36
2022-09-06T05:01:22.946Z,1020.28
2022-09-06T05:03:35.020Z,1020.30
2022-09-06T05:05:48.072Z,1020.26
2022-09-06T05:08:00.160Z,1020.29
2022-09-06T05:10:12.249Z,1020.24
2022-09-06T05:12:24.313Z,1020.26
2022-09-06T05:14:36.421Z,1020.24
2022-09-06T05:16:48.556Z,1020.29
2022-09-06T05:19:01.536Z,1020.26
2022-09-06T05:21:13.714Z,1020.28
2022-09-06T05:23:25.813Z,1020.34
2022-09-06T05:25:38.342Z,1020.33
2022-09-06T05:27:50.804Z,1020.40
2022-09-06T05:30:05.456Z,1020.35
2022-09-06T05:32:16.380Z,1020.37
2022-09-06T05:34:28.173Z,1020.39
2022-09-06T05:36:40.278Z,1020.33
2022-09-06T05:38:53.317Z,1020.34
2022-09-06T05:41:05.406Z,1020.42
2022-09-06T05:43:38.455Z,1020.48
2022-09-06T05:45:30.638Z,1020.45
2022-09-06T05:47:42.647Z,1020.46
2022-09-06T05:49:54.708Z,1020.39
2022-09-06T05:52:06.794Z,1020.37
2022-09-06T05:54:19.864Z,1020.28
2022-09-06T05:56:31.958Z,1020.36
2022-09-06T05:58:45.039Z,1020.31
2022-09-06T06:00:57.112Z,1020.31
2022-09-06T06:03:09.168Z,1020.28
2022-09-06T06:05:21.261Z,1020.22
2022-09-06T06:07:33.334Z,1020.14
2022-09-06T06:09:45.446Z,1020.16
2022-09-06T06:11:58.508Z,1020.15
2022-09-06T06:14:10.608Z,1020.16
2022-09-06T06:16:22.710Z,1020.19
2022-09-06T06:18:34.735Z,1020.16
2022-09-06T06:20:46.844Z,1020.17
2022-09-06T06:22:58.891Z,1020.21
2022-09-06T06:25:12.600Z,1020.19
2022-09-06T06:27:23.083Z,1020.20
2022-09-06T06:29:35.135Z,1020.22
2022-09-06T06:31:47.305Z,1020.21
2022-09-06T06:34:00.297Z,1020.27
2022-09-06T06:36:12.403Z,1020.29
2022-09-06T06:38:24.523Z,1020.19
2022-09-06T06:40:36.545Z,1020.20
2022-09-06T06:42:48.658Z,1020.16
2022-09-06T06:45:00.745Z,1020.19
2022-09-06T06:47:13.001Z,1020.15
2022-09-06T06:49:24.905Z,1020.06
2022-09-06T06:51:36.981Z,1020.10
2022-09-06T06:53:49.066Z,1020.03
2022-09-06T06:56:01.135Z,1020.08
2022-09-06T06:58:13.205Z,1020.05
2022-09-06T07:00:28.261Z,1020.01
2022-09-06T07:02:37.366Z,1020.07
2022-09-06T07:04:49.504Z,1020.04
2022-09-06T07:08:03.496Z,1020.00
2022-09-06T07:11:15.560Z,1019.96
2022-09-06T07:13:26.656Z,1019.96
2022-09-06T07:15:38.744Z,1019.99
2022-09-06T07:17:50.820Z,1020.08
2022-09-06T07:20:18.211Z,1020.11
2022-09-06T07:22:14.972Z,1020.08
2022-09-06T07:24:27.117Z,1020.07
2022-09-06T07:26:39.860Z,1019.99
2022-09-06T07:28:51.222Z,1020.03
2022-09-06T07:31:03.488Z,1020.00
2022-09-06T07:33:15.400Z,1019.98
2022-09-06T07:35:28.320Z,1020.01
2022-09-06T07:37:39.587Z,1019.94
2022-09-06T07:39:51.717Z,1020.03
2022-09-06T07:42:03.759Z,1019.95
2022-09-06T07:44:16.808Z,1019.94
2022-09-06T07:46:28.984Z,1019.96
2022-09-06T07:48:40.999Z,1019.98
2022-09-06T07:50:55.906Z,1019.93
2022-09-06T07:55:17.227Z,1019.87
2022-09-06T07:57:29.304Z,1019.88
2022-09-06T07:59:43.021Z,1019.80
2022-09-06T08:01:53.514Z,1019.74
2022-09-06T08:04:05.572Z,1019.75
2022-09-06T08:06:17.760Z,1019.78
2022-09-06T08:09:30.718Z,1019.79
2022-09-06T08:11:41.882Z,1019.97
2022-09-06T08:13:53.891Z,1020.02
2022-09-06T08:16:06.048Z,1020.03
2022-09-06T08:18:18.068Z,1020.05
2022-09-06T08:20:30.183Z,1020.04
2022-09-06T08:22:42.261Z,1020.05
2022-09-06T08:24:54.861Z,1020.07
2022-09-06T08:27:06.458Z,1019.96
2022-09-06T08:29:18.517Z,1019.94
2022-09-06T08:31:30.659Z,1019.95
2022-09-06T08:33:42.657Z,1019.89
2022-09-06T08:35:54.755Z,1019.90
2022-09-06T08:38:07.804Z,1019.82
2022-09-06T08:40:18.986Z,1019.85
2022-09-06T08:42:30.985Z,1019.80
2022-09-06T08:44:58.878Z,1019.81
2022-09-06T08:45:44.038Z,1019.79
2022-09-06T08:47:55.133Z,1019.80
2022-09-06T08:50:07.220Z,1019.79
2022-09-06T08:52:19.278Z,1019.83
2022-09-06T08:54:32.262Z,1019.81
2022-09-06T08:56:44.447Z,1019.81
2022-09-06T08:58:56.523Z,1019.84
2022-09-06T09:01:08.732Z,1019.86
2022-09-06T09:03:20.692Z,1019.82
2022-09-06T09:05:32.822Z,1019.79
2022-09-06T09:07:45.866Z,1019.80
2022-09-06T09:09:57.964Z,1019.72
2022-09-06T09:12:10.003Z,1019.69
2022-09-06T09:14:22.094Z,1019.64
2022-09-06T09:16:34.260Z,1019.55
2022-09-06T09:18:46.245Z,1019.53
2022-09-06T09:20:58.342Z,1019.46
2022-09-06T09:23:10.434Z,1019.37
2022-09-06T09:25:22.493Z,1019.38
2022-09-06T09:27:34.605Z,1019.36
2022-09-06T09:30:48.275Z,1019.44
2022-09-06T09:32:58.738Z,1019.51
2022-09-06T09:35:10.819Z,1019.54
2022-09-06T09:39:35.011Z,1019.41
2022-09-06T09:41:47.066Z,1019.43
2022-09-06T09:44:03.690Z,1019.41
2022-09-06T09:46:11.249Z,1019.36
2022-09-06T09:48:23.327Z,1019.34
2022-09-06T09:50:35.386Z,1019.29
2022-09-06T09:52:47.442Z,1019.23
2022-09-06T09:55:00.540Z,1019.20
2022-09-06T09:57:12.616Z,1019.15
2022-09-06T09:59:24.680Z,1019.15
2022-09-06T10:01:36.808Z,1019.24
2022-09-06T10:04:49.860Z,1019.19
2022-09-06T10:07:08.218Z,1019.15
2022-09-06T10:09:16.027Z,1019.22
2022-09-06T10:11:25.126Z,1019.11
2022-09-06T10:13:37.174Z,1019.10
2022-09-06T10:15:49.297Z,1019.11
2022-09-06T10:18:01.365Z,1019.17
2022-09-06T10:20:13.489Z,1019.12
2022-09-06T10:22:25.557Z,1019.14
2022-09-06T10:24:37.596Z,1019.06
2022-09-06T10:26:49.675Z,1019.08
2022-09-06T10:29:02.999Z,1019.04
2022-09-06T10:31:14.924Z,1019.00
2022-09-06T10:33:26.940Z,1018.98
2022-09-06T10:35:38.985Z,1018.96
2022-09-06T10:37:51.068Z,1018.91
2022-09-06T10:40:03.228Z,1018.87
2022-09-06T10:42:15.376Z,1018.85
2022-09-06T10:44:27.330Z,1018.87
2022-09-06T10:46:39.413Z,1018.88
2022-09-06T10:48:51.478Z,1018.82
2022-09-06T10:51:04.076Z,1018.82
2022-09-06T10:53:15.621Z,1018.78
2022-09-06T10:55:28.582Z,1018.73
2022-09-06T11:00:51.888Z,1018.75
2022-09-06T11:07:28.102Z,1018.81
2022-09-06T11:09:40.180Z,1018.78
2022-09-06T11:11:52.269Z,1018.71
2022-09-06T11:14:05.779Z,1018.68
2022-09-06T11:16:16.516Z,1018.64
2022-09-06T11:18:28.553Z,1018.68
2022-09-06T11:20:41.932Z,1018.63
2022-09-06T11:22:53.073Z,1018.60
2022-09-06T11:25:04.741Z,1018.61
2022-09-06T11:27:16.818Z,1018.54
2022-09-06T11:29:28.904Z,1018.52
2022-09-06T11:32:41.978Z,1018.53
2022-09-06T11:34:53.051Z,1018.53
2022-09-06T11:37:05.127Z,1018.52
2022-09-06T11:39:18.480Z,1018.49
2022-09-06T11:41:30.299Z,1018.45
2022-09-06T11:43:42.381Z,1018.41
2022-09-06T11:45:55.488Z,1018.39
2022-09-06T11:48:08.487Z,1018.39
2022-09-06T11:50:19.657Z,1018.45
2022-09-06T11:52:31.742Z,1018.47
2022-09-06T11:54:43.805Z,1018.45
2022-09-06T11:56:55.894Z,1018.45
2022-09-06T11:59:07.993Z,1018.49
2022-09-06T12:01:20.105Z,1018.40
2022-09-06T12:05:44.239Z,1018.38
2022-09-06T12:07:57.299Z,1018.33
2022-09-06T12:10:09.390Z,1018.32
2022-09-06T12:12:21.516Z,1018.29
2022-09-06T12:14:33.747Z,1018.26
2022-09-06T12:16:45.635Z,1018.30
2022-09-06T12:18:58.714Z,1018.21
2022-09-06T12:21:10.771Z,1018.21
2022-09-06T12:23:24.366Z,1018.19
2022-09-06T12:25:35.934Z,1018.12
2022-09-06T12:27:48.010Z,1018.06
2022-09-06T12:30:00.099Z,1018.09
2022-09-06T12:32:12.155Z,1018.10
2022-09-06T12:34:24.253Z,1018.07
2022-09-06T12:36:36.327Z,1018.04
2022-09-06T12:38:48.414Z,1018.06
2022-09-06T12:41:00.498Z,1018.01
2022-09-06T12:43:12.564Z,1018.06
2022-09-06T12:45:27.445Z,1018.09
2022-09-06T12:47:36.721Z,1018.03
2022-09-06T12:49:48.798Z,1018.00
2022-09-06T12:52:00.878Z,1017.97
2022-09-06T12:54:12.947Z,1017.97
2022-09-06T12:56:25.065Z,1017.90
2022-09-06T12:58:37.114Z,1017.85
2022-09-06T13:00:49.205Z,1017.86
2022-09-06T13:03:01.336Z,1017.84
2022-09-06T13:05:13.359Z,1017.82
2022-09-06T13:07:25.468Z,1017.80
2022-09-06T13:09:37.526Z,1017.76
2022-09-06T13:11:49.593Z,1017.76
2022-09-06T13:14:01.675Z,1017.70
2022-09-06T13:16:13.817Z,1017.67
2022-09-06T13:18:25.862Z,1017.61
2022-09-06T13:20:37.910Z,1017.58
2022-09-06T13:22:49.998Z,1017.62
2022-09-06T13:25:02.151Z,1017.57
2022-09-06T13:27:14.164Z,1017.50
2022-09-06T13:29:26.271Z,1017.43
2022-09-06T13:31:38.390Z,1017.49
2022-09-06T13:33:50.388Z,1017.42
2022-09-06T13:36:02.479Z,1017.39
2022-09-06T13:38:14.554Z,1017.29
2022-09-06T13:40:26.657Z,1017.30
2022-09-06T13:42:38.711Z,1017.30
2022-09-06T13:44:51.841Z,1017.28
2022-09-06T13:47:03.464Z,1017.27
2022-09-06T13:49:15.047Z,1017.25
2022-09-06T13:51:27.138Z,1017.25
2022-09-06T13:53:39.203Z,1017.25
2022-09-06T13:55:53.106Z,1017.24
2022-09-06T13:58:04.376Z,1017.19
2022-09-06T14:00:16.431Z,1017.24
2022-09-06T14:02:28.614Z,1017.24
2022-09-06T14:04:40.592Z,1017.26
2022-09-06T14:06:53.669Z,1017.25
2022-09-06T14:09:07.772Z,1017.22
2022-09-06T14:11:17.817Z,1017.25
2022-09-06T14:13:29.937Z,1017.20
2022-09-06T14:15:42.034Z,1017.22
2022-09-06T14:17:54.058Z,1017.27
2022-09-06T14:20:06.145Z,1017.26
2022-09-06T14:22:19.245Z,1017.21
2022-09-06T14:24:31.359Z,1017.22
2022-09-06T14:26:43.441Z,1017.28
2022-09-06T14:28:55.509Z,1017.27
2022-09-06T14:31:07.711Z,1017.25
2022-09-06T14:33:19.719Z,1017.19
2022-09-06T14:35:31.797Z,1017.20
2022-09-06T14:37:44.710Z,1017.11
2022-09-06T14:39:56.002Z,1017.15
2022-09-06T14:42:08.006Z,1017.08
2022-09-06T14:44:20.100Z,1017.07
2022-09-06T14:46:32.261Z,1017.12
2022-09-06T14:48:44.284Z,1017.12
2022-09-06T14:50:56.337Z,1017.09
2022-09-06T14:53:24.093Z,1017.10
2022-09-06T14:54:09.428Z,1017.15
2022-09-06T14:56:21.525Z,1017.14
2022-09-06T14:58:33.603Z,1017.22
2022-09-06T15:00:46.662Z,1017.19
2022-09-06T15:02:58.800Z,1017.17
2022-09-06T15:05:11.167Z,1017.16
2022-09-06T15:07:23.224Z,1017.18
2022-09-06T15:09:35.291Z,1017.12
2022-09-06T15:11:47.391Z,1017.03
2022-09-06T15:13:59.470Z,1017.05
2022-09-06T15:16:11.606Z,1016.99
2022-09-06T15:18:23.631Z,1017.09
2022-09-06T15:20:35.727Z,1017.05
2022-09-06T15:22:47.938Z,1017.06
2022-09-06T15:25:00.891Z,1017.07
2022-09-06T15:27:12.983Z,1017.08
2022-09-06T15:29:25.042Z,1017.09
2022-09-06T15:31:38.113Z,1017.03
2022-09-06T15:33:50.179Z,1016.97
2022-09-06T15:36:02.300Z,1016.97
2022-09-06T15:38:14.358Z,1016.92
2022-09-06T15:40:26.437Z,1016.95
2022-09-06T15:42:38.515Z,1016.96
2022-09-06T15:44:51.590Z,1016.92
2022-09-06T15:47:03.696Z,1016.94
2022-09-06T15:49:15.747Z,1016.87
2022-09-06T15:51:27.823Z,1016.86
2022-09-06T15:53:40.994Z,1016.86
2022-09-06T15:55:52.996Z,1016.87
2022-09-06T15:58:05.088Z,1016.85
2022-09-06T16:00:17.163Z,1016.88
2022-09-06T16:02:29.286Z,1016.86
2022-09-06T16:04:42.380Z,1016.81
2022-09-06T16:06:54.409Z,1016.78
2022-09-06T16:09:06.522Z,1016.79
2022-09-06T16:11:18.575Z,1016.77
2022-09-06T16:13:30.648Z,1016.77
2022-09-06T16:15:42.735Z,1016.80
2022-09-06T16:17:54.832Z,1016.77
2022-09-06T16:20:06.932Z,1016.76
2022-09-06T16:22:18.984Z,1016.72
2022-09-06T16:24:31.897Z,1016.63
2022-09-06T16:26:43.137Z,1016.65
2022-09-06T16:28:55.225Z,1016.64
2022-09-06T16:31:07.410Z,1016.60
2022-09-06T16:33:19.420Z,1016.66
2022-09-06T16:35:31.502Z,1016.64
2022-09-06T16:37:43.585Z,1016.64
2022-09-06T16:39:55.701Z,1016.65
2022-09-06T16:42:07.771Z,1016.60
2022-09-06T16:44:20.660Z,1016.60
2022-09-06T16:46:32.002Z,1016.58
2022-09-06T16:48:44.958Z,1016.56
2022-09-06T16:50:57.066Z,1016.64
2022-09-06T16:53:09.173Z,1016.61
2022-09-06T16:55:21.241Z,1016.59
2022-09-06T16:57:33.332Z,1016.55
2022-09-06T16:59:45.397Z,1016.50
2022-09-06T17:01:57.532Z,1016.49
2022-09-06T17:04:09.596Z,1016.49
2022-09-06T17:06:21.632Z,1016.45
2022-09-06T17:08:33.736Z,1016.48
2022-09-06T17:10:45.813Z,1016.49
2022-09-06T17:12:57.891Z,1016.52
2022-09-06T17:15:10.008Z,1016.46
2022-09-06T17:17:22.074Z,1016.46
2022-09-06T17:19:34.140Z,1016.49
2022-09-06T17:21:46.215Z,1016.46
2022-09-06T17:23:58.297Z,1016.51
2022-09-06T17:26:10.410Z,1016.48
2022-09-06T17:28:22.455Z,1016.50
2022-09-06T17:30:34.599Z,1016.51
2022-09-06T17:32:46.651Z,1016.55
2022-09-06T17:34:58.748Z,1016.58
2022-09-06T17:37:11.810Z,1016.61
2022-09-06T17:39:23.881Z,1016.60
2022-09-06T17:41:35.963Z,1016.62
2022-09-06T17:43:48.045Z,1016.69
2022-09-06T17:46:00.183Z,1016.65
2022-09-06T17:48:12.230Z,1016.66
2022-09-06T17:50:24.273Z,1016.64
2022-09-06T17:52:36.349Z,1016.70
2022-09-06T17:54:48.456Z,1016.75
2022-09-06T17:57:00.537Z,1016.78
2022-09-06T17:59:12.644Z,1016.78
2022-09-06T18:01:24.782Z,1016.77
2022-09-06T18:03:37.773Z,1016.78
2022-09-06T18:05:50.846Z,1016.79
2022-09-06T18:08:02.938Z,1016.82
2022-09-06T18:10:15.028Z,1016.84
2022-09-06T18:12:27.093Z,1016.80
2022-09-06T18:14:39.183Z,1016.82
2022-09-06T18:16:52.275Z,1016.78
2022-09-06T18:19:04.347Z,1016.76
2022-09-06T18:21:16.431Z,1016.75
2022-09-06T18:23:28.523Z,1016.77
2022-09-06T18:25:40.607Z,1016.76
2022-09-06T18:27:52.696Z,1016.78
2022-09-06T18:30:04.771Z,1016.80
2022-09-06T18:32:16.867Z,1016.85
2022-09-06T18:34:29.945Z,1016.77
2022-09-06T18:36:42.034Z,1016.78
2022-09-06T18:38:55.115Z,1016.79
2022-09-06T18:41:07.193Z,1016.78
2022-09-06T18:43:19.376Z,1016.78
2022-09-06T18:45:31.446Z,1016.81
2022-09-06T18:47:43.488Z,1016.81
2022-09-06T18:49:55.574Z,1016.81
2022-09-06T18:52:07.648Z,1016.80
2022-09-06T18:54:19.763Z,1016.82
2022-09-06T18:56:32.658Z,1016.86
2022-09-06T18:58:43.898Z,1016.84
2022-09-06T19:00:57.024Z,1016.82
2022-09-06T19:03:09.279Z,1016.87
2022-09-06T19:05:21.182Z,1016.88
2022-09-06T19:07:34.243Z,1016.85
2022-09-06T19:09:46.305Z,1016.86
2022-09-06T19:11:59.378Z,1016.85
2022-09-06T19:14:12.987Z,1016.85
2022-09-06T19:16:23.640Z,1016.85
2022-09-06T19:18:35.613Z,1016.89
2022-09-06T19:20:47.702Z,1016.87
2022-09-06T19:23:00.784Z,1016.91
2022-09-06T19:25:12.857Z,1016.92
2022-09-06T19:27:25.265Z,1016.92
2022-09-06T19:29:37.370Z,1016.89
2022-09-06T19:31:49.477Z,1016.84
2022-09-06T19:34:01.484Z,1016.90
2022-09-06T19:36:13.561Z,1016.88
2022-09-06T19:38:25.766Z,1016.89
2022-09-06T19:40:38.018Z,1016.92
2022-09-06T19:42:51.088Z,1016.85
2022-09-06T19:45:03.172Z,1016.86
2022-09-06T19:47:15.550Z,1016.88
2022-09-06T19:49:27.657Z,1016.88
2022-09-06T19:51:39.732Z,1016.84
2022-09-06T19:53:51.798Z,1016.77
2022-09-06T19:56:03.885Z,1016.72
2022-09-06T19:58:15.953Z,1016.67
2022-09-06T20:00:33.494Z,1016.64
2022-09-06T20:02:41.098Z,1016.62
2022-09-06T20:04:53.174Z,1016.61
2022-09-06T20:07:05.298Z,1016.59
2022-09-06T20:09:17.380Z,1016.59
2022-09-06T20:11:29.488Z,1016.56
2022-09-06T20:13:41.542Z,1016.66
2022-09-06T20:15:53.652Z,1016.67
2022-09-06T20:18:05.707Z,1016.68
2022-09-06T20:20:17.789Z,1016.65
2022-09-06T20:22:29.877Z,1016.60
2022-09-06T20:24:41.958Z,1016.62
2022-09-06T20:26:54.025Z,1016.59
2022-09-06T20:29:06.100Z,1016.58
2022-09-06T20:31:18.275Z,1016.60
2022-09-06T20:33:30.568Z,1016.55
2022-09-06T20:35:42.347Z,1016.58
2022-09-06T20:37:54.438Z,1016.53
2022-09-06T20:40:06.598Z,1016.51
2022-09-06T20:42:19.469Z,1016.50
2022-09-06T20:44:30.731Z,1016.49
2022-09-06T20:46:43.662Z,1016.41
2022-09-06T20:48:54.872Z,1016.34
2022-09-06T20:51:06.939Z,1016.33
2022-09-06T20:53:19.013Z,1016.31
2022-09-06T20:55:31.116Z,1016.26
2022-09-06T20:57:43.485Z,1016.21
2022-09-06T20:59:55.603Z,1016.12
2022-09-06T21:02:08.266Z,1016.10
2022-09-06T21:04:19.760Z,1016.05
2022-09-06T21:06:32.846Z,1016.02
2022-09-06T21:08:44.944Z,1016.00
2022-09-06T21:10:57.014Z,1015.97
2022-09-06T21:13:09.097Z,1016.03
2022-09-06T21:15:22.165Z,1016.00
2022-09-06T21:17:34.276Z,1015.99
2022-09-06T21:19:46.334Z,1015.96
2022-09-06T21:21:58.429Z,1015.92
2022-09-06T21:24:10.509Z,1015.93
2022-09-06T21:26:22.589Z,1015.97
2022-09-06T21:28:34.704Z,1016.01
2022-09-06T21:30:47.593Z,1015.98
2022-09-06T21:32:58.831Z,1015.94
2022-09-06T21:35:10.956Z,1015.93
2022-09-06T21:37:23.616Z,1016.02
2022-09-06T21:39:35.179Z,1016.02
2022-09-06T21:41:47.205Z,1016.01
2022-09-06T21:43:59.295Z,1015.99
2022-09-06T21:46:11.389Z,1015.89
2022-09-06T21:48:24.415Z,1015.89
2022-09-06T21:50:35.554Z,1015.85
2022-09-06T21:52:47.594Z,1015.83
2022-09-06T21:54:59.680Z,1015.82
2022-09-06T21:57:11.763Z,1015.79
2022-09-06T21:59:23.838Z,1015.74
2022-09-06T22:01:36.958Z,1015.77
2022-09-06T22:03:48.054Z,1015.73
2022-09-06T22:06:00.431Z,1015.71
2022-09-06T22:08:12.530Z,1015.65
2022-09-06T22:10:24.607Z,1015.62
2022-09-06T22:12:37.692Z,1015.63
2022-09-06T22:14:49.748Z,1015.64
2022-09-06T22:17:01.838Z,1015.70
2022-09-06T22:19:14.855Z,1015.71
2022-09-06T22:21:25.987Z,1015.63
2022-09-06T22:23:38.103Z,1015.60
2022-09-06T22:25:51.150Z,1015.58
2022-09-06T22:28:03.228Z,1015.56
2022-09-06T22:30:15.306Z,1015.63
2022-09-06T22:32:27.386Z,1015.63
2022-09-06T22:34:39.484Z,1015.64
2022-09-06T22:36:51.535Z,1015.63
2022-09-06T22:39:03.629Z,1015.67
2022-09-06T22:41:15.728Z,1015.66
2022-09-06T22:43:28.718Z,1015.68
2022-09-06T22:45:39.890Z,1015.62
2022-09-06T22:47:52.784Z,1015.63
2022-09-06T22:50:04.031Z,1015.61
2022-09-06T22:52:16.942Z,1015.57
2022-09-06T22:54:28.202Z,1015.54
2022-09-06T22:56:40.282Z,1015.52
2022-09-06T22:58:53.180Z,1015.53
2022-09-06T23:01:06.314Z,1015.60
2022-09-06T23:03:16.549Z,1015.55
2022-09-06T23:05:28.588Z,1015.54
2022-09-06T23:07:40.674Z,1015.53
2022-09-06T23:09:52.736Z,1015.52
2022-09-06T23:12:05.662Z,1015.50
2022-09-06T23:14:16.887Z,1015.47
2022-09-06T23:16:28.999Z,1015.48
2022-09-06T23:18:41.070Z,1015.47
2022-09-06T23:20:53.128Z,1015.48
2022-09-06T23:23:05.221Z,1015.45
2022-09-06T23:25:17.295Z,1015.48
2022-09-06T23:27:29.373Z,1015.46
2022-09-06T23:29:42.475Z,1015.42
2022-09-06T23:31:54.553Z,1015.44
2022-09-06T23:34:06.582Z,1015.44
2022-09-06T23:36:18.670Z,1015.47
2022-09-06T23:38:30.888Z,1015.47
2022-09-06T23:40:42.856Z,1015.42
2022-09-06T23:42:54.913Z,1015.44
2022-09-06T23:45:07.000Z,1015.50
2022-09-06T23:47:19.099Z,1015.56
2022-09-06T23:49:31.157Z,1015.53
2022-09-06T23:51:44.102Z,1015.52
2022-09-06T23:53:55.308Z,1015.62
2022-09-06T23:56:07.400Z,1015.57
2022-09-06T23:58:19.479Z,1015.44
